METAR Data

Data at: 0501 UTC 18 Oct 2018

METAR for:KATL (Atlanta/Hartsfield-J, GA, US)
Text:KATL 180452Z 33008KT 10SM BKN150 BKN250 16/08 A3028 RMK AO2 SLP249 T01560078 402390156
Temperature: 15.6°C ( 60°F)
Dewpoint: 7.8°C ( 46°F) [RH = 60%]
Pressure (altimeter):30.28 inches Hg (1025.5 mb) [Sea level pressure: 1024.9 mb]
Winds:from the NNW (330 degrees) at 9 MPH (8 knots; 4.1 m/s)
Visibility:10 or more sm (16+ km)
Ceiling:15000 feet AGL
Clouds: broken clouds at 15000 feet AGL, broken clouds at 25000 feet AGL